Time;durP1;ratioP1;P1;durP2;ratioP2;P2;SDS_P1;SDS_P2;PMS_P1;PMS_P2;Temp;Humidity;BMP_temperature;BMP_pressure;BME280_temperature;BME280_humidity;BME280_pressure;Samples;Min_cycle;Max_cycle;Signal;HPM_P1;HPM_P2
2021/11/01 00:02:00;;;;;;;5.80;4.30;;;;;;;8.41;59.10;97999.90;235756;1197;22412;-73
2021/11/01 00:07:03;;;;;;;6.70;5.00;;;;;;;8.55;58.85;97994.67;235928;1197;22454;-73
2021/11/01 00:12:19;;;;;;;5.80;4.50;;;;;;;8.65;58.79;97986.21;235883;1190;25147;-73
2021/11/01 00:17:42;;;;;;;6.30;4.40;;;;;;;8.77;58.61;97981.52;235944;1198;24069;-73
2021/11/01 00:22:45;;;;;;;6.80;4.60;;;;;;;8.86;58.37;97982.05;235901;1197;23995;-75
2021/11/01 00:27:49;;;;;;;6.20;4.10;;;;;;;8.95;58.29;97976.33;235844;1197;24085;-75
2021/11/01 00:32:52;;;;;;;7.10;4.80;;;;;;;9.06;58.10;97969.11;235839;1183;22461;-74
2021/11/01 00:37:55;;;;;;;5.50;3.90;;;;;;;9.13;57.92;97959.20;235798;1192;24066;-74
2021/11/01 00:42:58;;;;;;;5.20;4.10;;;;;;;9.20;57.77;97953.75;235992;1198;24044;-74
2021/11/01 00:48:01;;;;;;;6.60;4.30;;;;;;;9.26;57.66;97948.34;236186;1192;25013;-74
2021/11/01 00:53:04;;;;;;;5.50;4.10;;;;;;;9.31;57.39;97943.11;235959;1198;23101;-73
2021/11/01 00:58:14;;;;;;;7.00;4.40;;;;;;;9.37;57.38;97931.29;235893;1198;22408;-74
2021/11/01 01:03:34;;;;;;;6.80;4.50;;;;;;;9.47;57.22;97922.30;235883;1198;25160;-73
2021/11/01 01:08:37;;;;;;;6.50;4.50;;;;;;;9.53;57.10;97919.90;236015;1197;25478;-73
2021/11/01 01:13:41;;;;;;;8.20;4.70;;;;;;;9.61;56.98;97915.55;236179;1190;24403;-74
2021/11/01 01:18:46;;;;;;;5.20;4.00;;;;;;;9.62;57.05;97918.36;235882;1198;24085;-75
2021/11/01 01:23:49;;;;;;;6.80;4.40;;;;;;;9.61;56.74;97913.16;235979;1198;25099;-75
2021/11/01 01:29:11;;;;;;;5.60;4.60;;;;;;;9.60;56.82;97912.69;235785;1191;24191;-75
2021/11/01 01:34:13;;;;;;;6.50;4.40;;;;;;;9.57;56.77;97907.83;236052;1199;24541;-74
2021/11/01 01:39:16;;;;;;;5.90;4.80;;;;;;;9.60;56.86;97901.36;235853;1184;24507;-74
2021/11/01 01:44:18;;;;;;;6.90;5.00;;;;;;;9.61;56.81;97901.65;235814;1198;22444;-75
2021/11/01 01:49:35;;;;;;;5.70;4.30;;;;;;;9.58;56.84;97898.04;235913;1192;22460;-74
2021/11/01 01:54:37;;;;;;;5.80;4.70;;;;;;;9.55;56.94;97896.16;235916;1197;25026;-75
2021/11/01 01:59:46;;;;;;;6.70;4.10;;;;;;;9.52;56.80;97910.58;235958;1197;24093;-75
2021/11/01 02:05:07;;;;;;;5.30;4.50;;;;;;;9.44;56.95;97911.29;235857;1184;22419;-77
2021/11/01 02:10:19;;;;;;;7.00;4.50;;;;;;;9.35;57.08;97890.10;235984;1197;25197;-75
2021/11/01 02:15:28;;;;;;;7.40;4.50;;;;;;;9.36;57.33;97895.91;235957;1197;23714;-75
2021/11/01 02:20:50;;;;;;;6.40;4.70;;;;;;;9.32;57.33;97906.20;236133;1197;22393;-76
2021/11/01 02:26:00;;;;;;;5.90;4.70;;;;;;;9.26;57.41;97910.46;235870;1197;22441;-75
2021/11/01 02:31:06;;;;;;;6.70;4.20;;;;;;;9.24;57.53;97910.34;235990;1198;22443;-74
2021/11/01 02:36:09;;;;;;;6.30;4.50;;;;;;;9.15;57.56;97909.77;236034;1196;25154;-74
2021/11/01 02:41:21;;;;;;;6.50;5.10;;;;;;;9.10;57.87;97907.80;235910;1198;22530;-76
2021/11/01 02:46:26;;;;;;;6.20;4.80;;;;;;;9.13;58.10;97907.56;236002;1184;22472;-75
2021/11/01 02:51:31;;;;;;;6.70;5.20;;;;;;;9.12;58.05;97911.29;235903;1198;22431;-74
2021/11/01 02:56:33;;;;;;;7.40;5.50;;;;;;;9.03;57.97;97915.42;235947;1197;22458;-73
2021/11/01 03:01:37;;;;;;;7.50;5.20;;;;;;;8.95;58.11;97911.79;235867;1197;24428;-75
2021/11/01 03:06:40;;;;;;;6.10;5.00;;;;;;;8.84;58.09;97906.98;236070;1190;24054;-75
2021/11/01 03:11:43;;;;;;;8.40;5.50;;;;;;;8.68;58.09;97897.27;236004;1190;24017;-74
2021/11/01 03:16:47;;;;;;;6.60;5.10;;;;;;;8.49;58.29;97883.09;235819;1197;24090;-74
2021/11/01 03:21:51;;;;;;;7.60;4.90;;;;;;;8.34;58.49;97879.19;236007;1197;22457;-75
2021/11/01 03:26:55;;;;;;;9.60;5.30;;;;;;;8.30;58.90;97877.02;236107;1190;24133;-75
2021/11/01 03:32:06;;;;;;;8.20;5.00;;;;;;;8.32;59.14;97873.66;236052;1199;22456;-75
2021/11/01 03:37:12;;;;;;;;;;;;;;;8.37;59.12;97875.71;235856;1198;22418;-75
2021/11/01 03:42:15;;;;;;;7.50;5.30;;;;;;;8.37;59.29;97874.80;236089;1197;24094;-75
2021/11/01 03:47:32;;;;;;;9.10;6.20;;;;;;;8.34;59.39;97864.40;236054;1197;25079;-72
2021/11/01 03:52:35;;;;;;;8.40;5.70;;;;;;;8.28;59.41;97856.99;236163;1181;25160;-74
2021/11/01 03:57:38;;;;;;;8.10;5.70;;;;;;;8.20;59.60;97860.16;236825;1190;22465;-74
2021/11/01 04:02:46;;;;;;;8.40;5.30;;;;;;;8.08;59.39;97858.95;236767;1196;24082;-74
2021/11/01 04:07:51;;;;;;;9.00;5.60;;;;;;;7.92;59.59;97854.73;236614;1196;22547;-74
2021/11/01 04:12:54;;;;;;;7.80;5.50;;;;;;;7.75;59.81;97846.64;236254;1196;24053;-73
2021/11/01 04:18:02;;;;;;;8.50;5.30;;;;;;;7.57;59.73;97835.80;236531;1195;22984;-73
2021/11/01 04:23:12;;;;;;;8.90;5.20;;;;;;;7.43;60.08;97838.58;236752;1193;25046;-73
2021/11/01 04:28:24;;;;;;;9.10;6.00;;;;;;;7.34;60.27;97842.82;236217;1196;26470;-74
2021/11/01 04:33:28;;;;;;;7.90;5.90;;;;;;;7.25;60.68;97843.01;235902;1197;24276;-74
2021/11/01 04:54:24;;;;;;;7.90;6.10;;;;;;;6.78;61.35;97826.45;236351;1193;24050;-75
2021/11/01 04:59:29;;;;;;;7.10;4.70;;;;;;;6.67;61.36;97827.28;236535;1196;24021;-75
2021/11/01 05:04:37;;;;;;;9.40;5.90;;;;;;;6.59;61.61;97823.85;236838;1194;24120;-73
2021/11/01 05:09:59;;;;;;;8.70;5.70;;;;;;;6.55;61.92;97828.60;236746;1181;22539;-73
2021/11/01 05:15:09;;;;;;;9.50;6.00;;;;;;;6.49;62.22;97824.30;236376;1196;25045;-75
2021/11/01 05:20:37;;;;;;;9.50;5.40;;;;;;;6.44;62.47;97821.42;236558;1196;22498;-73
2021/11/01 05:25:45;;;;;;;10.20;6.80;;;;;;;6.59;62.80;97814.48;236475;1196;24040;-74
2021/11/01 05:30:58;;;;;;;10.00;6.80;;;;;;;6.74;62.84;97820.90;236385;1184;24139;-74
2021/11/01 05:36:01;;;;;;;11.80;7.60;;;;;;;6.85;62.78;97816.82;235921;1197;24505;-74
2021/11/01 05:41:04;;;;;;;11.00;7.90;;;;;;;6.98;62.68;97811.85;236063;1190;24078;-73
2021/11/01 05:46:20;;;;;;;11.30;8.30;;;;;;;7.09;62.57;97806.57;236225;1183;24576;-74
2021/11/01 05:51:23;;;;;;;14.00;9.40;;;;;;;7.21;62.26;97809.83;236296;1197;22449;-73
2021/11/01 06:07:36;;;;;;;12.90;7.80;;;;;;;7.13;61.98;97806.73;236384;1189;22409;-74
2021/11/01 06:18:01;;;;;;;13.80;8.70;;;;;;;7.23;62.23;97812.23;236649;1196;22883;-75
2021/11/01 06:23:04;;;;;;;15.90;9.40;;;;;;;7.32;62.05;97807.94;236466;1196;22559;-75
2021/11/01 06:28:12;;;;;;;23.10;12.50;;;;;;;7.45;62.03;97811.95;236003;1196;24152;-75
2021/11/01 08:47:08;;;;;;;9.50;6.90;;;;;;;12.46;55.79;97772.71;236031;1197;24091;-78
2021/11/01 08:52:10;;;;;;;9.90;7.40;;;;;;;12.65;55.20;97772.42;235888;1197;25225;-75
2021/11/01 09:07:57;;;;;;;6.90;4.80;;;;;;;13.26;53.34;97757.36;236139;1190;22476;-75
2021/11/01 09:13:51;;;;;;;7.80;5.50;;;;;;;13.48;52.33;97755.45;236115;1197;24273;-73
2021/11/01 09:18:47;;;;;;;7.70;5.30;;;;;;;13.69;51.85;97752.00;236174;1197;24044;-74
2021/11/01 09:28:59;;;;;;;8.20;5.20;;;;;;;14.03;50.22;97747.17;235944;1198;24120;-76
2021/11/01 09:39:41;;;;;;;5.50;4.70;;;;;;;14.32;49.59;97741.46;236232;1197;26183;-73
2021/11/01 09:44:47;;;;;;;5.40;4.60;;;;;;;14.47;49.78;97733.43;236160;1190;24156;-74
2021/11/01 09:49:51;;;;;;;6.40;4.90;;;;;;;14.62;48.64;97733.42;236205;1197;22454;-73
2021/11/01 09:54:56;;;;;;;6.50;5.10;;;;;;;14.72;48.67;97735.28;236520;1197;22440;-75
2021/11/01 09:59:59;;;;;;;7.90;5.30;;;;;;;14.87;48.88;97732.91;236210;1190;24200;-73
2021/11/01 10:05:03;;;;;;;6.50;5.30;;;;;;;15.04;49.14;97727.94;236163;1197;26197;-73
2021/11/01 10:10:12;;;;;;;7.00;4.80;;;;;;;15.17;48.66;97725.15;236157;1190;22424;-75
2021/11/01 10:21:00;;;;;;;6.40;5.10;;;;;;;15.39;47.92;97727.88;236053;1197;24091;-74
2021/11/01 10:26:14;;;;;;;6.10;4.80;;;;;;;15.52;48.00;97723.71;236344;1197;24148;-75
2021/11/01 10:31:21;;;;;;;6.30;4.70;;;;;;;15.65;47.88;97717.48;236259;1197;22419;-73
2021/11/01 10:36:30;;;;;;;7.70;5.10;;;;;;;15.74;47.65;97708.70;236027;1192;24035;-74
2021/11/01 10:41:54;;;;;;;5.70;4.80;;;;;;;15.86;47.34;97705.62;236188;1197;22416;-72
2021/11/01 11:42:17;;;;;;;5.60;4.70;;;;;;;17.00;46.84;97663.33;235971;1190;25157;-75
2021/11/01 11:51:58;;;;;;;9.80;5.60;;;;;;;17.13;47.25;97652.30;235829;1183;24044;-75
2021/11/01 11:57:23;;;;;;;5.40;4.50;;;;;;;17.19;47.28;97645.90;235839;1190;24044;-75
2021/11/01 12:02:40;;;;;;;5.20;4.70;;;;;;;17.24;46.99;97640.96;236049;1184;24032;-73
2021/11/01 12:19:05;;;;;;;5.30;4.70;;;;;;;17.27;46.61;97633.83;236150;1197;22558;-76
2021/11/01 12:24:11;;;;;;;4.80;4.30;;;;;;;17.25;46.67;97625.52;236266;1193;22438;-73
2021/11/01 12:29:16;;;;;;;5.50;4.10;;;;;;;17.26;46.15;97621.35;236181;1197;24043;-76
2021/11/01 12:34:22;;;;;;;5.90;4.20;;;;;;;17.24;46.67;97620.17;235706;1197;25092;-74
2021/11/01 13:01:23;;;;;;;5.00;4.10;;;;;;;17.24;46.58;97612.67;236090;1197;24551;-73
2021/11/01 13:12:01;;;;;;;4.20;3.80;;;;;;;17.13;46.42;97612.64;236096;1197;22448;-76
2021/11/01 13:23:00;;;;;;;5.20;4.20;;;;;;;16.98;46.69;97606.11;236145;1190;24200;-76
2021/11/01 13:38:53;;;;;;;5.60;3.80;;;;;;;16.79;46.91;97609.06;236209;1197;25329;-75
2021/11/01 13:44:15;;;;;;;4.90;4.10;;;;;;;16.69;46.98;97616.05;236173;1197;22538;-75
2021/11/01 13:49:20;;;;;;;4.40;3.70;;;;;;;16.58;47.02;97614.31;235849;1192;23270;-76
2021/11/01 13:54:49;;;;;;;4.80;4.30;;;;;;;16.48;47.20;97617.59;236059;1197;22641;-75
2021/11/01 14:00:13;;;;;;;5.80;4.20;;;;;;;16.37;47.49;97611.72;236065;1190;25148;-75
2021/11/01 14:16:22;;;;;;;5.00;4.20;;;;;;;16.02;47.68;97599.65;235349;1198;25157;-75
2021/11/01 15:25:56;;;;;;;7.40;5.50;;;;;;;13.28;51.16;97599.21;236220;1187;25206;-75
2021/11/01 16:18:55;;;;;;;24.20;13.10;;;;;;;11.17;55.49;97579.02;236352;1197;24130;-75
2021/11/01 16:23:57;;;;;;;20.10;11.70;;;;;;;11.00;55.97;97585.02;236050;1198;25287;-75
2021/11/01 16:29:10;;;;;;;25.70;14.90;;;;;;;10.89;56.37;97587.73;236117;1197;25230;-75
2021/11/01 16:34:19;;;;;;;25.50;15.90;;;;;;;10.82;56.76;97587.48;236139;1198;24012;-73
2021/11/01 16:39:26;;;;;;;25.40;15.50;;;;;;;10.75;56.96;97586.77;236169;1197;24193;-76
2021/11/01 16:44:37;;;;;;;27.90;16.30;;;;;;;10.67;57.02;97588.71;235956;1198;25160;-75
2021/11/01 16:49:40;;;;;;;25.00;15.50;;;;;;;10.57;57.41;97592.19;236278;1197;22703;-75
2021/11/01 16:54:49;;;;;;;25.50;15.00;;;;;;;10.46;57.57;97588.28;236092;1197;24004;-75
2021/11/01 17:00:34;;;;;;;;;;;;;;;10.38;58.04;97589.94;236133;1190;22418;-73
2021/11/01 17:37:33;;;;;;;28.80;17.20;;;;;;;10.35;59.48;97585.72;236255;1197;25051;-73
2021/11/01 18:53:20;;;;;;;32.30;18.40;;;;;;;10.24;60.72;97558.08;236188;1174;24050;-75
2021/11/01 18:58:26;;;;;;;32.70;20.90;;;;;;;10.28;60.80;97561.02;236202;1197;26565;-75
2021/11/01 19:03:33;;;;;;;33.70;19.30;;;;;;;10.29;60.89;97559.05;236253;1197;25046;-75
2021/11/01 20:13:10;;;;;;;15.40;10.20;;;;;;;10.70;61.90;97542.55;236156;1197;22478;-73
2021/11/01 21:28:35;;;;;;;12.50;9.00;;;;;;;11.60;61.02;97516.54;236175;1197;22889;-74
2021/11/01 21:33:38;;;;;;;11.80;8.30;;;;;;;11.60;60.94;97509.61;236220;1184;24014;-74
2021/11/01 21:38:54;;;;;;;12.20;8.90;;;;;;;11.58;60.91;97507.80;236072;1190;24576;-76
2021/11/01 21:43:57;;;;;;;12.30;8.50;;;;;;;11.56;60.88;97497.92;236194;1197;24714;-76
2021/11/01 21:49:00;;;;;;;10.60;7.40;;;;;;;11.53;60.78;97493.96;236144;1197;25316;-77
2021/11/01 21:54:25;;;;;;;12.30;8.10;;;;;;;11.52;60.82;97490.85;236357;1184;24209;-74
2021/11/01 22:20:46;;;;;;;13.00;9.30;;;;;;;11.47;61.13;97482.47;236046;1197;25164;-74
2021/11/01 22:58:00;;;;;;;10.40;8.10;;;;;;;11.46;61.16;97433.04;236156;1196;22531;-74
2021/11/01 23:03:13;;;;;;;11.10;8.00;;;;;;;11.44;61.25;97427.05;236001;1190;24069;-74
2021/11/01 23:35:20;;;;;;;12.40;8.90;;;;;;;11.48;61.75;97406.05;235993;1197;24050;-73
2021/11/01 23:40:23;;;;;;;16.80;11.20;;;;;;;11.51;61.71;97405.83;236200;1191;24576;-75
2021/11/01 23:45:47;;;;;;;21.20;13.70;;;;;;;11.49;61.50;97400.17;235988;1197;25702;-74
2021/11/01 23:50:52;;;;;;;22.40;13.40;;;;;;;11.44;61.74;97396.35;235929;1198;22547;-75
2021/11/01 23:56:12;;;;;;;20.80;13.40;;;;;;;11.40;61.78;97389.89;235880;1197;25182;-75
